sensor_id;sensor_type;location;lat;lon;timestamp;temperature;humidity
50013;DHT22;35901;48.694;9.476;2023-05-23T00:01:41;13.50;99.90
50013;DHT22;35901;48.694;9.476;2023-05-23T00:04:07;13.60;99.90
50013;DHT22;35901;48.694;9.476;2023-05-23T00:06:34;13.60;99.90
50013;DHT22;35901;48.694;9.476;2023-05-23T00:09:00;13.50;99.90
50013;DHT22;35901;48.694;9.476;2023-05-23T00:11:26;13.70;99.90
50013;DHT22;35901;48.694;9.476;2023-05-23T00:13:54;13.80;99.90
50013;DHT22;35901;48.694;9.476;2023-05-23T00:16:20;14.00;99.90
50013;DHT22;35901;48.694;9.476;2023-05-23T00:18:45;14.00;99.90
50013;DHT22;35901;48.694;9.476;2023-05-23T00:21:11;13.90;99.90
50013;DHT22;35901;48.694;9.476;2023-05-23T00:23:40;13.90;99.90
50013;DHT22;35901;48.694;9.476;2023-05-23T00:26:09;14.00;99.90
50013;DHT22;35901;48.694;9.476;2023-05-23T00:28:37;13.90;99.90
50013;DHT22;35901;48.694;9.476;2023-05-23T00:31:02;14.00;99.90
50013;DHT22;35901;48.694;9.476;2023-05-23T00:33:30;14.00;99.90
50013;DHT22;35901;48.694;9.476;2023-05-23T00:35:59;14.10;99.90
50013;DHT22;35901;48.694;9.476;2023-05-23T00:38:24;14.00;99.90
50013;DHT22;35901;48.694;9.476;2023-05-23T00:40:51;14.00;99.90
50013;DHT22;35901;48.694;9.476;2023-05-23T00:43:17;14.00;99.90
50013;DHT22;35901;48.694;9.476;2023-05-23T00:45:44;14.00;99.90
50013;DHT22;35901;48.694;9.476;2023-05-23T00:48:10;14.00;99.90
50013;DHT22;35901;48.694;9.476;2023-05-23T00:50:37;14.00;99.90
50013;DHT22;35901;48.694;9.476;2023-05-23T00:53:03;14.10;99.90
50013;DHT22;35901;48.694;9.476;2023-05-23T00:55:29;14.20;99.90
50013;DHT22;35901;48.694;9.476;2023-05-23T00:57:55;14.30;99.90
50013;DHT22;35901;48.694;9.476;2023-05-23T01:00:24;14.40;99.90
50013;DHT22;35901;48.694;9.476;2023-05-23T01:02:51;14.50;99.90
50013;DHT22;35901;48.694;9.476;2023-05-23T01:05:18;14.50;99.90
50013;DHT22;35901;48.694;9.476;2023-05-23T01:07:48;14.40;99.90
50013;DHT22;35901;48.694;9.476;2023-05-23T01:10:16;14.40;99.90
50013;DHT22;35901;48.694;9.476;2023-05-23T01:15:22;14.40;99.90
50013;DHT22;35901;48.694;9.476;2023-05-23T01:18:07;14.40;99.90
50013;DHT22;35901;48.694;9.476;2023-05-23T01:20:39;14.30;99.90
50013;DHT22;35901;48.694;9.476;2023-05-23T01:26:17;14.10;99.90
50013;DHT22;35901;48.694;9.476;2023-05-23T01:28:46;14.10;99.90
50013;DHT22;35901;48.694;9.476;2023-05-23T01:31:15;14.10;99.90
50013;DHT22;35901;48.694;9.476;2023-05-23T01:33:42;14.10;99.90
50013;DHT22;35901;48.694;9.476;2023-05-23T01:36:09;14.20;99.90
50013;DHT22;35901;48.694;9.476;2023-05-23T01:38:37;14.30;99.90
50013;DHT22;35901;48.694;9.476;2023-05-23T01:41:02;14.40;99.90
50013;DHT22;35901;48.694;9.476;2023-05-23T01:43:30;14.40;99.90
50013;DHT22;35901;48.694;9.476;2023-05-23T01:45:56;14.50;99.90
50013;DHT22;35901;48.694;9.476;2023-05-23T01:48:23;14.50;99.90
50013;DHT22;35901;48.694;9.476;2023-05-23T01:50:50;14.60;99.90
50013;DHT22;35901;48.694;9.476;2023-05-23T01:53:19;14.70;99.90
50013;DHT22;35901;48.694;9.476;2023-05-23T01:55:46;14.80;99.90
50013;DHT22;35901;48.694;9.476;2023-05-23T01:58:12;14.70;99.90
50013;DHT22;35901;48.694;9.476;2023-05-23T02:00:38;14.80;99.90
50013;DHT22;35901;48.694;9.476;2023-05-23T02:03:05;14.90;99.90
50013;DHT22;35901;48.694;9.476;2023-05-23T02:05:31;14.90;99.90
50013;DHT22;35901;48.694;9.476;2023-05-23T02:07:59;14.90;99.90
50013;DHT22;35901;48.694;9.476;2023-05-23T02:10:25;14.90;99.90
50013;DHT22;35901;48.694;9.476;2023-05-23T02:12:51;14.90;99.90
50013;DHT22;35901;48.694;9.476;2023-05-23T02:15:17;14.90;99.90
50013;DHT22;35901;48.694;9.476;2023-05-23T02:17:43;14.90;99.90
50013;DHT22;35901;48.694;9.476;2023-05-23T02:20:09;14.70;99.90
50013;DHT22;35901;48.694;9.476;2023-05-23T02:22:35;14.50;99.90
50013;DHT22;35901;48.694;9.476;2023-05-23T02:25:01;14.40;99.90
50013;DHT22;35901;48.694;9.476;2023-05-23T02:27:27;14.30;99.90
50013;DHT22;35901;48.694;9.476;2023-05-23T02:29:53;14.10;99.90
50013;DHT22;35901;48.694;9.476;2023-05-23T02:32:18;14.00;99.90
50013;DHT22;35901;48.694;9.476;2023-05-23T02:34:44;13.90;99.90
50013;DHT22;35901;48.694;9.476;2023-05-23T02:37:12;13.90;99.90
50013;DHT22;35901;48.694;9.476;2023-05-23T02:39:38;13.90;99.90
50013;DHT22;35901;48.694;9.476;2023-05-23T02:42:04;13.90;99.90
50013;DHT22;35901;48.694;9.476;2023-05-23T02:44:30;14.00;99.90
50013;DHT22;35901;48.694;9.476;2023-05-23T02:46:56;14.10;99.90
50013;DHT22;35901;48.694;9.476;2023-05-23T02:49:22;14.30;99.90
50013;DHT22;35901;48.694;9.476;2023-05-23T02:51:49;14.30;99.90
50013;DHT22;35901;48.694;9.476;2023-05-23T02:54:15;14.40;99.90
50013;DHT22;35901;48.694;9.476;2023-05-23T02:56:41;14.40;99.90
50013;DHT22;35901;48.694;9.476;2023-05-23T02:59:07;14.50;99.90
50013;DHT22;35901;48.694;9.476;2023-05-23T03:01:32;14.50;99.90
50013;DHT22;35901;48.694;9.476;2023-05-23T03:03:58;14.60;99.90
50013;DHT22;35901;48.694;9.476;2023-05-23T03:06:23;14.60;99.90
50013;DHT22;35901;48.694;9.476;2023-05-23T03:08:49;14.70;99.90
50013;DHT22;35901;48.694;9.476;2023-05-23T03:11:15;14.70;99.90
50013;DHT22;35901;48.694;9.476;2023-05-23T03:13:45;14.70;99.90
50013;DHT22;35901;48.694;9.476;2023-05-23T03:16:10;14.70;99.90
50013;DHT22;35901;48.694;9.476;2023-05-23T03:18:37;14.80;99.90
50013;DHT22;35901;48.694;9.476;2023-05-23T03:21:03;14.80;99.90
50013;DHT22;35901;48.694;9.476;2023-05-23T03:23:29;14.80;99.90
50013;DHT22;35901;48.694;9.476;2023-05-23T03:25:54;14.80;99.90
50013;DHT22;35901;48.694;9.476;2023-05-23T03:28:20;14.80;99.90
50013;DHT22;35901;48.694;9.476;2023-05-23T03:30:45;14.80;99.90
50013;DHT22;35901;48.694;9.476;2023-05-23T03:33:11;14.80;99.90
50013;DHT22;35901;48.694;9.476;2023-05-23T03:35:37;14.80;99.90
50013;DHT22;35901;48.694;9.476;2023-05-23T03:38:02;14.80;99.90
50013;DHT22;35901;48.694;9.476;2023-05-23T03:40:28;14.90;99.90
50013;DHT22;35901;48.694;9.476;2023-05-23T03:43:04;14.90;99.90
50013;DHT22;35901;48.694;9.476;2023-05-23T03:45:32;14.90;99.90
50013;DHT22;35901;48.694;9.476;2023-05-23T03:48:00;14.90;99.90
50013;DHT22;35901;48.694;9.476;2023-05-23T03:50:26;14.90;99.90
50013;DHT22;35901;48.694;9.476;2023-05-23T03:52:53;14.90;99.90
50013;DHT22;35901;48.694;9.476;2023-05-23T03:55:23;14.90;99.90
50013;DHT22;35901;48.694;9.476;2023-05-23T03:57:50;14.90;99.90
50013;DHT22;35901;48.694;9.476;2023-05-23T04:00:17;14.90;99.90
50013;DHT22;35901;48.694;9.476;2023-05-23T04:02:43;14.90;99.90
50013;DHT22;35901;48.694;9.476;2023-05-23T04:05:11;14.90;99.90
50013;DHT22;35901;48.694;9.476;2023-05-23T04:07:38;14.90;99.90
50013;DHT22;35901;48.694;9.476;2023-05-23T04:10:07;14.90;99.90
50013;DHT22;35901;48.694;9.476;2023-05-23T04:12:32;14.80;99.90
50013;DHT22;35901;48.694;9.476;2023-05-23T04:14:59;14.90;99.90
50013;DHT22;35901;48.694;9.476;2023-05-23T04:17:25;14.80;99.90
50013;DHT22;35901;48.694;9.476;2023-05-23T04:19:58;14.80;99.90
50013;DHT22;35901;48.694;9.476;2023-05-23T04:22:24;14.80;99.90
50013;DHT22;35901;48.694;9.476;2023-05-23T04:24:49;14.80;99.90
50013;DHT22;35901;48.694;9.476;2023-05-23T04:27:17;14.80;99.90
50013;DHT22;35901;48.694;9.476;2023-05-23T04:29:42;14.80;99.90
50013;DHT22;35901;48.694;9.476;2023-05-23T04:32:08;14.80;99.90
50013;DHT22;35901;48.694;9.476;2023-05-23T04:34:34;14.90;99.90
50013;DHT22;35901;48.694;9.476;2023-05-23T04:37:01;14.90;99.90
50013;DHT22;35901;48.694;9.476;2023-05-23T04:39:28;15.00;99.90
50013;DHT22;35901;48.694;9.476;2023-05-23T04:42:12;15.00;99.90
50013;DHT22;35901;48.694;9.476;2023-05-23T04:44:54;15.10;99.90
50013;DHT22;35901;48.694;9.476;2023-05-23T04:47:42;15.10;99.90
50013;DHT22;35901;48.694;9.476;2023-05-23T04:50:15;15.20;99.90
50013;DHT22;35901;48.694;9.476;2023-05-23T04:52:41;15.30;99.90
50013;DHT22;35901;48.694;9.476;2023-05-23T04:55:08;15.30;99.90
50013;DHT22;35901;48.694;9.476;2023-05-23T04:57:35;15.30;99.90
50013;DHT22;35901;48.694;9.476;2023-05-23T05:00:01;15.30;99.90
50013;DHT22;35901;48.694;9.476;2023-05-23T05:02:29;15.40;99.90
50013;DHT22;35901;48.694;9.476;2023-05-23T05:04:59;15.40;99.90
50013;DHT22;35901;48.694;9.476;2023-05-23T05:07:25;15.50;99.90
50013;DHT22;35901;48.694;9.476;2023-05-23T05:09:51;15.50;99.90
50013;DHT22;35901;48.694;9.476;2023-05-23T05:12:17;15.60;99.90
50013;DHT22;35901;48.694;9.476;2023-05-23T05:14:43;15.60;99.90
50013;DHT22;35901;48.694;9.476;2023-05-23T05:17:09;15.70;99.90
50013;DHT22;35901;48.694;9.476;2023-05-23T05:19:44;15.70;99.90
50013;DHT22;35901;48.694;9.476;2023-05-23T05:22:11;15.60;99.90
50013;DHT22;35901;48.694;9.476;2023-05-23T05:24:37;15.70;99.90
50013;DHT22;35901;48.694;9.476;2023-05-23T05:27:05;15.70;99.90
50013;DHT22;35901;48.694;9.476;2023-05-23T05:29:31;15.70;99.90
50013;DHT22;35901;48.694;9.476;2023-05-23T05:31:58;15.70;99.90
50013;DHT22;35901;48.694;9.476;2023-05-23T05:34:26;15.80;99.90
50013;DHT22;35901;48.694;9.476;2023-05-23T05:36:53;15.90;99.90
50013;DHT22;35901;48.694;9.476;2023-05-23T05:39:23;16.00;99.90
50013;DHT22;35901;48.694;9.476;2023-05-23T05:41:50;16.00;99.90
50013;DHT22;35901;48.694;9.476;2023-05-23T05:44:16;16.10;99.90
50013;DHT22;35901;48.694;9.476;2023-05-23T05:46:42;16.20;99.90
50013;DHT22;35901;48.694;9.476;2023-05-23T05:49:08;16.30;99.90
50013;DHT22;35901;48.694;9.476;2023-05-23T05:51:33;16.30;99.90
50013;DHT22;35901;48.694;9.476;2023-05-23T05:53:59;16.40;99.90
50013;DHT22;35901;48.694;9.476;2023-05-23T05:56:25;16.40;99.90
50013;DHT22;35901;48.694;9.476;2023-05-23T05:58:52;16.50;99.90
50013;DHT22;35901;48.694;9.476;2023-05-23T06:01:18;16.50;99.90
50013;DHT22;35901;48.694;9.476;2023-05-23T06:03:43;16.60;99.90
50013;DHT22;35901;48.694;9.476;2023-05-23T06:06:09;16.70;99.90
50013;DHT22;35901;48.694;9.476;2023-05-23T06:08:37;16.80;99.90
50013;DHT22;35901;48.694;9.476;2023-05-23T06:11:03;16.90;99.90
50013;DHT22;35901;48.694;9.476;2023-05-23T06:13:29;17.00;99.90
50013;DHT22;35901;48.694;9.476;2023-05-23T06:15:55;17.20;99.90
50013;DHT22;35901;48.694;9.476;2023-05-23T06:18:21;17.50;99.90
50013;DHT22;35901;48.694;9.476;2023-05-23T06:20:49;17.70;99.90
50013;DHT22;35901;48.694;9.476;2023-05-23T06:23:16;18.10;99.90
50013;DHT22;35901;48.694;9.476;2023-05-23T06:25:43;18.30;99.90
50013;DHT22;35901;48.694;9.476;2023-05-23T06:28:09;18.50;99.90
50013;DHT22;35901;48.694;9.476;2023-05-23T06:30:34;18.70;99.90
50013;DHT22;35901;48.694;9.476;2023-05-23T06:33:02;18.80;99.90
50013;DHT22;35901;48.694;9.476;2023-05-23T06:35:28;18.80;99.90
50013;DHT22;35901;48.694;9.476;2023-05-23T06:37:53;18.60;99.90
50013;DHT22;35901;48.694;9.476;2023-05-23T06:40:19;18.60;99.90
50013;DHT22;35901;48.694;9.476;2023-05-23T06:42:44;18.50;99.90
50013;DHT22;35901;48.694;9.476;2023-05-23T06:45:37;18.50;99.90
50013;DHT22;35901;48.694;9.476;2023-05-23T06:48:03;18.40;99.90
50013;DHT22;35901;48.694;9.476;2023-05-23T06:50:30;18.40;99.90
50013;DHT22;35901;48.694;9.476;2023-05-23T06:52:56;18.40;99.90
50013;DHT22;35901;48.694;9.476;2023-05-23T06:55:22;18.30;99.90
50013;DHT22;35901;48.694;9.476;2023-05-23T06:57:49;18.20;99.90
50013;DHT22;35901;48.694;9.476;2023-05-23T07:00:18;18.10;99.90
50013;DHT22;35901;48.694;9.476;2023-05-23T07:02:59;18.10;99.90
50013;DHT22;35901;48.694;9.476;2023-05-23T07:05:27;18.00;99.90
50013;DHT22;35901;48.694;9.476;2023-05-23T07:07:55;18.00;99.90
50013;DHT22;35901;48.694;9.476;2023-05-23T07:10:21;17.90;99.90
50013;DHT22;35901;48.694;9.476;2023-05-23T07:12:49;17.80;99.90
50013;DHT22;35901;48.694;9.476;2023-05-23T07:15:18;17.70;99.90
50013;DHT22;35901;48.694;9.476;2023-05-23T07:17:54;17.70;99.90
50013;DHT22;35901;48.694;9.476;2023-05-23T07:20:20;17.60;99.90
50013;DHT22;35901;48.694;9.476;2023-05-23T07:22:47;17.50;99.90
50013;DHT22;35901;48.694;9.476;2023-05-23T07:25:14;17.50;99.90
50013;DHT22;35901;48.694;9.476;2023-05-23T07:27:40;17.40;99.90
50013;DHT22;35901;48.694;9.476;2023-05-23T07:30:06;17.30;99.90
50013;DHT22;35901;48.694;9.476;2023-05-23T07:32:35;17.30;99.90
50013;DHT22;35901;48.694;9.476;2023-05-23T07:35:01;17.30;99.90
50013;DHT22;35901;48.694;9.476;2023-05-23T07:37:27;17.40;99.90
50013;DHT22;35901;48.694;9.476;2023-05-23T07:39:53;17.40;99.90
50013;DHT22;35901;48.694;9.476;2023-05-23T07:42:19;17.40;99.90
50013;DHT22;35901;48.694;9.476;2023-05-23T07:44:44;17.40;99.90
50013;DHT22;35901;48.694;9.476;2023-05-23T07:47:10;17.40;99.90
50013;DHT22;35901;48.694;9.476;2023-05-23T07:49:36;17.50;99.90
50013;DHT22;35901;48.694;9.476;2023-05-23T07:52:03;17.60;99.90
50013;DHT22;35901;48.694;9.476;2023-05-23T07:54:30;17.70;99.90
50013;DHT22;35901;48.694;9.476;2023-05-23T07:56:58;17.80;99.90
50013;DHT22;35901;48.694;9.476;2023-05-23T07:59:24;17.80;99.90
50013;DHT22;35901;48.694;9.476;2023-05-23T08:01:51;17.80;99.90
50013;DHT22;35901;48.694;9.476;2023-05-23T08:04:19;17.70;99.90
50013;DHT22;35901;48.694;9.476;2023-05-23T08:06:50;17.50;99.90
50013;DHT22;35901;48.694;9.476;2023-05-23T08:09:16;17.40;99.90
50013;DHT22;35901;48.694;9.476;2023-05-23T08:11:48;17.40;99.90
50013;DHT22;35901;48.694;9.476;2023-05-23T08:14:14;17.20;99.90
50013;DHT22;35901;48.694;9.476;2023-05-23T08:16:53;17.20;99.90
50013;DHT22;35901;48.694;9.476;2023-05-23T08:19:22;17.30;99.90
50013;DHT22;35901;48.694;9.476;2023-05-23T08:21:49;17.30;99.90
50013;DHT22;35901;48.694;9.476;2023-05-23T08:24:15;17.40;99.90
50013;DHT22;35901;48.694;9.476;2023-05-23T08:26:42;17.50;99.90
50013;DHT22;35901;48.694;9.476;2023-05-23T08:29:10;17.60;99.90
50013;DHT22;35901;48.694;9.476;2023-05-23T08:31:36;17.80;99.90
50013;DHT22;35901;48.694;9.476;2023-05-23T08:34:03;17.90;99.90
50013;DHT22;35901;48.694;9.476;2023-05-23T08:36:29;17.90;99.90
50013;DHT22;35901;48.694;9.476;2023-05-23T08:38:54;17.80;99.90
50013;DHT22;35901;48.694;9.476;2023-05-23T08:41:26;17.80;99.90
50013;DHT22;35901;48.694;9.476;2023-05-23T08:43:58;17.70;99.90
50013;DHT22;35901;48.694;9.476;2023-05-23T08:46:29;17.80;99.90
50013;DHT22;35901;48.694;9.476;2023-05-23T08:48:57;17.80;99.90
50013;DHT22;35901;48.694;9.476;2023-05-23T08:51:27;17.80;99.90
50013;DHT22;35901;48.694;9.476;2023-05-23T08:53:55;17.80;99.90
50013;DHT22;35901;48.694;9.476;2023-05-23T08:56:23;18.00;99.90
50013;DHT22;35901;48.694;9.476;2023-05-23T08:58:53;18.10;99.90
50013;DHT22;35901;48.694;9.476;2023-05-23T09:01:21;18.10;99.90
50013;DHT22;35901;48.694;9.476;2023-05-23T09:03:50;18.10;99.90
50013;DHT22;35901;48.694;9.476;2023-05-23T09:06:22;18.30;99.90
50013;DHT22;35901;48.694;9.476;2023-05-23T09:08:48;18.30;99.90
50013;DHT22;35901;48.694;9.476;2023-05-23T09:11:16;18.30;99.90
50013;DHT22;35901;48.694;9.476;2023-05-23T09:13:43;18.30;99.90
50013;DHT22;35901;48.694;9.476;2023-05-23T09:16:15;18.40;99.90
50013;DHT22;35901;48.694;9.476;2023-05-23T09:18:46;18.50;99.90
50013;DHT22;35901;48.694;9.476;2023-05-23T09:21:14;18.50;99.90
50013;DHT22;35901;48.694;9.476;2023-05-23T09:24:12;18.70;99.90
50013;DHT22;35901;48.694;9.476;2023-05-23T09:26:38;18.80;99.90
50013;DHT22;35901;48.694;9.476;2023-05-23T09:29:05;18.90;99.90
50013;DHT22;35901;48.694;9.476;2023-05-23T09:31:31;18.90;99.90
50013;DHT22;35901;48.694;9.476;2023-05-23T09:33:57;19.00;99.90
50013;DHT22;35901;48.694;9.476;2023-05-23T09:36:27;19.00;99.90
50013;DHT22;35901;48.694;9.476;2023-05-23T09:39:03;19.10;99.90
50013;DHT22;35901;48.694;9.476;2023-05-23T09:41:35;19.20;99.90
50013;DHT22;35901;48.694;9.476;2023-05-23T09:44:06;19.20;99.90
50013;DHT22;35901;48.694;9.476;2023-05-23T09:46:34;19.10;99.90
50013;DHT22;35901;48.694;9.476;2023-05-23T09:49:01;19.20;99.90
50013;DHT22;35901;48.694;9.476;2023-05-23T09:51:28;19.40;99.90
50013;DHT22;35901;48.694;9.476;2023-05-23T09:53:54;19.80;99.90
50013;DHT22;35901;48.694;9.476;2023-05-23T09:56:22;20.10;99.90
50013;DHT22;35901;48.694;9.476;2023-05-23T09:58:49;20.20;99.90
50013;DHT22;35901;48.694;9.476;2023-05-23T10:01:15;20.20;99.90
50013;DHT22;35901;48.694;9.476;2023-05-23T10:03:47;20.30;99.90
50013;DHT22;35901;48.694;9.476;2023-05-23T10:06:16;20.50;99.90
50013;DHT22;35901;48.694;9.476;2023-05-23T10:08:52;20.50;99.90
50013;DHT22;35901;48.694;9.476;2023-05-23T10:12:20;20.40;99.90
50013;DHT22;35901;48.694;9.476;2023-05-23T10:14:13;20.30;99.90
50013;DHT22;35901;48.694;9.476;2023-05-23T10:16:54;20.20;99.90
50013;DHT22;35901;48.694;9.476;2023-05-23T10:19:26;20.20;99.90
50013;DHT22;35901;48.694;9.476;2023-05-23T10:22:01;20.00;99.90
50013;DHT22;35901;48.694;9.476;2023-05-23T10:24:28;19.90;99.90
50013;DHT22;35901;48.694;9.476;2023-05-23T10:26:54;19.90;99.90
50013;DHT22;35901;48.694;9.476;2023-05-23T10:29:24;20.10;99.90
50013;DHT22;35901;48.694;9.476;2023-05-23T10:31:51;20.30;99.90
50013;DHT22;35901;48.694;9.476;2023-05-23T10:37:05;20.30;99.90
50013;DHT22;35901;48.694;9.476;2023-05-23T10:42:36;20.20;99.90
50013;DHT22;35901;48.694;9.476;2023-05-23T10:45:39;20.10;99.90
50013;DHT22;35901;48.694;9.476;2023-05-23T10:51:02;20.50;99.90
50013;DHT22;35901;48.694;9.476;2023-05-23T10:53:30;20.60;99.90
50013;DHT22;35901;48.694;9.476;2023-05-23T10:55:56;20.60;99.90
50013;DHT22;35901;48.694;9.476;2023-05-23T10:58:22;20.90;99.90
50013;DHT22;35901;48.694;9.476;2023-05-23T11:00:56;21.00;99.90
50013;DHT22;35901;48.694;9.476;2023-05-23T11:03:50;20.90;99.90
50013;DHT22;35901;48.694;9.476;2023-05-23T11:06:31;20.80;99.90
50013;DHT22;35901;48.694;9.476;2023-05-23T11:09:05;20.50;99.90
50013;DHT22;35901;48.694;9.476;2023-05-23T11:16:57;20.30;99.90
50013;DHT22;35901;48.694;9.476;2023-05-23T11:19:24;20.30;99.90
50013;DHT22;35901;48.694;9.476;2023-05-23T11:22:00;20.20;99.90
50013;DHT22;35901;48.694;9.476;2023-05-23T11:24:46;20.30;99.90
50013;DHT22;35901;48.694;9.476;2023-05-23T11:27:12;20.60;99.90
50013;DHT22;35901;48.694;9.476;2023-05-23T11:29:37;20.90;99.90
50013;DHT22;35901;48.694;9.476;2023-05-23T11:32:10;21.00;99.90
50013;DHT22;35901;48.694;9.476;2023-05-23T11:34:38;20.90;99.90
50013;DHT22;35901;48.694;9.476;2023-05-23T11:37:05;20.70;99.90
50013;DHT22;35901;48.694;9.476;2023-05-23T11:39:31;20.30;99.90
50013;DHT22;35901;48.694;9.476;2023-05-23T11:42:01;20.20;99.90
50013;DHT22;35901;48.694;9.476;2023-05-23T11:44:27;20.20;99.90
50013;DHT22;35901;48.694;9.476;2023-05-23T11:47:03;20.10;99.90
50013;DHT22;35901;48.694;9.476;2023-05-23T11:49:34;20.20;99.90
50013;DHT22;35901;48.694;9.476;2023-05-23T11:52:02;20.20;99.90
50013;DHT22;35901;48.694;9.476;2023-05-23T11:54:29;20.20;99.90
50013;DHT22;35901;48.694;9.476;2023-05-23T11:56:55;20.10;99.90
50013;DHT22;35901;48.694;9.476;2023-05-23T11:59:24;20.10;99.90
50013;DHT22;35901;48.694;9.476;2023-05-23T12:01:51;20.20;99.90
50013;DHT22;35901;48.694;9.476;2023-05-23T12:04:17;20.50;99.90
50013;DHT22;35901;48.694;9.476;2023-05-23T12:06:46;20.50;99.90
50013;DHT22;35901;48.694;9.476;2023-05-23T12:09:13;20.60;99.90
50013;DHT22;35901;48.694;9.476;2023-05-23T12:11:40;20.70;99.90
50013;DHT22;35901;48.694;9.476;2023-05-23T12:14:07;20.50;99.90
50013;DHT22;35901;48.694;9.476;2023-05-23T12:16:35;20.50;99.90
50013;DHT22;35901;48.694;9.476;2023-05-23T12:19:02;20.40;99.90
50013;DHT22;35901;48.694;9.476;2023-05-23T12:24:16;20.50;99.90
50013;DHT22;35901;48.694;9.476;2023-05-23T12:27:00;20.50;99.90
50013;DHT22;35901;48.694;9.476;2023-05-23T12:29:33;20.50;99.90
50013;DHT22;35901;48.694;9.476;2023-05-23T12:32:01;20.50;99.90
50013;DHT22;35901;48.694;9.476;2023-05-23T12:34:27;20.60;99.90
50013;DHT22;35901;48.694;9.476;2023-05-23T12:36:54;20.70;99.90
50013;DHT22;35901;48.694;9.476;2023-05-23T12:39:25;20.90;99.90
50013;DHT22;35901;48.694;9.476;2023-05-23T12:41:51;21.00;99.90
50013;DHT22;35901;48.694;9.476;2023-05-23T12:44:17;20.80;99.90
50013;DHT22;35901;48.694;9.476;2023-05-23T12:46:43;20.60;99.90
50013;DHT22;35901;48.694;9.476;2023-05-23T12:49:10;20.30;99.90
50013;DHT22;35901;48.694;9.476;2023-05-23T12:51:35;20.10;99.90
50013;DHT22;35901;48.694;9.476;2023-05-23T12:54:01;20.10;99.90
50013;DHT22;35901;48.694;9.476;2023-05-23T12:56:27;20.10;99.90
50013;DHT22;35901;48.694;9.476;2023-05-23T12:58:52;20.10;99.90
50013;DHT22;35901;48.694;9.476;2023-05-23T13:01:19;20.20;99.90
50013;DHT22;35901;48.694;9.476;2023-05-23T13:03:45;20.40;99.90
50013;DHT22;35901;48.694;9.476;2023-05-23T13:06:10;20.40;99.90
50013;DHT22;35901;48.694;9.476;2023-05-23T13:08:36;20.60;99.90
50013;DHT22;35901;48.694;9.476;2023-05-23T13:11:02;20.60;99.90
50013;DHT22;35901;48.694;9.476;2023-05-23T13:13:28;21.00;99.90
50013;DHT22;35901;48.694;9.476;2023-05-23T13:15:55;21.60;99.90
50013;DHT22;35901;48.694;9.476;2023-05-23T13:18:21;22.00;99.90
50013;DHT22;35901;48.694;9.476;2023-05-23T13:20:46;22.40;99.90
50013;DHT22;35901;48.694;9.476;2023-05-23T13:23:12;22.70;99.90
50013;DHT22;35901;48.694;9.476;2023-05-23T13:25:38;22.70;98.90
50013;DHT22;35901;48.694;9.476;2023-05-23T13:28:03;22.70;99.20
50013;DHT22;35901;48.694;9.476;2023-05-23T13:30:30;22.50;99.40
50013;DHT22;35901;48.694;9.476;2023-05-23T13:32:55;22.30;99.90
50013;DHT22;35901;48.694;9.476;2023-05-23T13:35:21;22.00;99.90
50013;DHT22;35901;48.694;9.476;2023-05-23T13:37:47;21.80;99.90
50013;DHT22;35901;48.694;9.476;2023-05-23T13:40:16;21.50;99.90
50013;DHT22;35901;48.694;9.476;2023-05-23T13:42:43;21.40;99.90
50013;DHT22;35901;48.694;9.476;2023-05-23T13:45:08;21.50;99.90
50013;DHT22;35901;48.694;9.476;2023-05-23T13:47:34;22.00;99.80
50013;DHT22;35901;48.694;9.476;2023-05-23T13:50:02;22.00;99.30
50013;DHT22;35901;48.694;9.476;2023-05-23T13:52:28;21.80;99.60
50013;DHT22;35901;48.694;9.476;2023-05-23T13:54:54;21.60;99.90
50013;DHT22;35901;48.694;9.476;2023-05-23T13:57:20;21.50;99.90
50013;DHT22;35901;48.694;9.476;2023-05-23T13:59:46;21.50;99.70
50013;DHT22;35901;48.694;9.476;2023-05-23T14:02:11;21.40;99.40
50013;DHT22;35901;48.694;9.476;2023-05-23T14:04:37;21.30;99.50
50013;DHT22;35901;48.694;9.476;2023-05-23T14:07:03;21.20;99.90
50013;DHT22;35901;48.694;9.476;2023-05-23T14:09:28;20.90;99.90
50013;DHT22;35901;48.694;9.476;2023-05-23T14:11:54;20.50;99.90
50013;DHT22;35901;48.694;9.476;2023-05-23T14:14:20;20.20;99.90
50013;DHT22;35901;48.694;9.476;2023-05-23T14:16:46;20.00;99.90
50013;DHT22;35901;48.694;9.476;2023-05-23T14:19:11;20.00;99.90
50013;DHT22;35901;48.694;9.476;2023-05-23T14:21:37;20.00;99.90
50013;DHT22;35901;48.694;9.476;2023-05-23T14:24:03;20.00;99.90
50013;DHT22;35901;48.694;9.476;2023-05-23T14:26:29;20.00;99.90
50013;DHT22;35901;48.694;9.476;2023-05-23T14:28:54;20.00;99.90
50013;DHT22;35901;48.694;9.476;2023-05-23T14:31:21;20.00;99.90
50013;DHT22;35901;48.694;9.476;2023-05-23T14:33:47;20.00;99.90
50013;DHT22;35901;48.694;9.476;2023-05-23T14:36:14;20.00;99.90
50013;DHT22;35901;48.694;9.476;2023-05-23T14:38:40;20.10;99.90
50013;DHT22;35901;48.694;9.476;2023-05-23T14:41:10;20.00;99.90
50013;DHT22;35901;48.694;9.476;2023-05-23T14:43:35;20.00;99.90
50013;DHT22;35901;48.694;9.476;2023-05-23T14:46:01;20.10;99.90
50013;DHT22;35901;48.694;9.476;2023-05-23T14:48:27;20.10;99.90
50013;DHT22;35901;48.694;9.476;2023-05-23T14:50:52;20.10;99.90
50013;DHT22;35901;48.694;9.476;2023-05-23T14:53:18;20.10;99.90
50013;DHT22;35901;48.694;9.476;2023-05-23T14:55:46;20.20;99.90
50013;DHT22;35901;48.694;9.476;2023-05-23T14:58:12;20.30;99.90
50013;DHT22;35901;48.694;9.476;2023-05-23T15:00:38;20.30;99.90
50013;DHT22;35901;48.694;9.476;2023-05-23T15:03:05;20.40;99.90
50013;DHT22;35901;48.694;9.476;2023-05-23T15:05:31;20.50;99.90
50013;DHT22;35901;48.694;9.476;2023-05-23T15:07:57;20.40;99.90
50013;DHT22;35901;48.694;9.476;2023-05-23T15:10:23;20.40;99.90
50013;DHT22;35901;48.694;9.476;2023-05-23T15:12:49;20.50;99.90
50013;DHT22;35901;48.694;9.476;2023-05-23T15:15:15;20.50;99.90
50013;DHT22;35901;48.694;9.476;2023-05-23T15:17:47;20.50;99.90
50013;DHT22;35901;48.694;9.476;2023-05-23T15:20:12;20.50;99.90
50013;DHT22;35901;48.694;9.476;2023-05-23T15:22:38;20.50;99.90
50013;DHT22;35901;48.694;9.476;2023-05-23T15:25:05;20.40;99.90
50013;DHT22;35901;48.694;9.476;2023-05-23T15:27:31;20.30;99.90
50013;DHT22;35901;48.694;9.476;2023-05-23T15:29:56;20.20;99.90
50013;DHT22;35901;48.694;9.476;2023-05-23T15:32:22;20.10;99.90
50013;DHT22;35901;48.694;9.476;2023-05-23T15:34:48;20.10;99.90
50013;DHT22;35901;48.694;9.476;2023-05-23T15:37:14;20.10;99.90
50013;DHT22;35901;48.694;9.476;2023-05-23T15:39:40;20.00;99.90
50013;DHT22;35901;48.694;9.476;2023-05-23T15:42:06;20.00;99.90
50013;DHT22;35901;48.694;9.476;2023-05-23T15:44:31;20.00;99.90
50013;DHT22;35901;48.694;9.476;2023-05-23T15:46:57;19.90;99.90
50013;DHT22;35901;48.694;9.476;2023-05-23T15:49:23;19.90;99.90
50013;DHT22;35901;48.694;9.476;2023-05-23T15:51:48;19.90;99.90
50013;DHT22;35901;48.694;9.476;2023-05-23T15:54:14;19.90;99.90
50013;DHT22;35901;48.694;9.476;2023-05-23T15:56:39;20.10;99.90